sensor_id;sensor_type;location;lat;lon;timestamp;temperature;humidity
51029;DHT22;37054;52.054;8.600;2023-05-19T00:01:22;9.80;47.70
51029;DHT22;37054;52.054;8.600;2023-05-19T00:03:49;9.80;47.90
51029;DHT22;37054;52.054;8.600;2023-05-19T00:06:19;9.80;48.00
51029;DHT22;37054;52.054;8.600;2023-05-19T00:08:45;9.70;48.20
51029;DHT22;37054;52.054;8.600;2023-05-19T00:11:11;9.70;48.30
51029;DHT22;37054;52.054;8.600;2023-05-19T00:13:36;9.60;48.70
51029;DHT22;37054;52.054;8.600;2023-05-19T00:16:02;9.60;48.90
51029;DHT22;37054;52.054;8.600;2023-05-19T00:18:28;9.60;48.90
51029;DHT22;37054;52.054;8.600;2023-05-19T00:20:53;9.60;48.90
51029;DHT22;37054;52.054;8.600;2023-05-19T00:23:19;9.50;48.90
51029;DHT22;37054;52.054;8.600;2023-05-19T00:25:44;9.50;48.90
51029;DHT22;37054;52.054;8.600;2023-05-19T00:28:10;9.50;49.00
51029;DHT22;37054;52.054;8.600;2023-05-19T00:30:35;9.40;49.10
51029;DHT22;37054;52.054;8.600;2023-05-19T00:33:01;9.40;49.30
51029;DHT22;37054;52.054;8.600;2023-05-19T00:35:26;9.40;49.40
51029;DHT22;37054;52.054;8.600;2023-05-19T00:37:52;9.40;49.50
51029;DHT22;37054;52.054;8.600;2023-05-19T00:40:17;9.40;49.80
51029;DHT22;37054;52.054;8.600;2023-05-19T00:42:43;9.30;49.60
51029;DHT22;37054;52.054;8.600;2023-05-19T00:45:08;9.30;49.50
51029;DHT22;37054;52.054;8.600;2023-05-19T00:47:34;9.30;49.50
51029;DHT22;37054;52.054;8.600;2023-05-19T00:49:59;9.30;49.50
51029;DHT22;37054;52.054;8.600;2023-05-19T00:52:25;9.30;49.60
51029;DHT22;37054;52.054;8.600;2023-05-19T00:54:51;9.20;49.80
51029;DHT22;37054;52.054;8.600;2023-05-19T00:57:17;9.20;50.00
51029;DHT22;37054;52.054;8.600;2023-05-19T00:59:43;9.10;50.20
51029;DHT22;37054;52.054;8.600;2023-05-19T01:02:08;9.10;50.20
51029;DHT22;37054;52.054;8.600;2023-05-19T01:04:34;9.00;50.10
51029;DHT22;37054;52.054;8.600;2023-05-19T01:07:00;9.00;50.10
51029;DHT22;37054;52.054;8.600;2023-05-19T01:09:25;9.00;50.10
51029;DHT22;37054;52.054;8.600;2023-05-19T01:11:51;9.00;50.10
51029;DHT22;37054;52.054;8.600;2023-05-19T01:14:17;8.90;50.20
51029;DHT22;37054;52.054;8.600;2023-05-19T01:16:49;8.90;50.30
51029;DHT22;37054;52.054;8.600;2023-05-19T01:22:05;8.80;50.60
51029;DHT22;37054;52.054;8.600;2023-05-19T01:27:20;8.70;51.80
51029;DHT22;37054;52.054;8.600;2023-05-19T01:30:06;8.70;51.50
51029;DHT22;37054;52.054;8.600;2023-05-19T01:32:32;8.70;51.20
51029;DHT22;37054;52.054;8.600;2023-05-19T01:34:58;8.60;51.10
51029;DHT22;37054;52.054;8.600;2023-05-19T01:37:25;8.60;51.10
51029;DHT22;37054;52.054;8.600;2023-05-19T01:39:51;8.50;51.10
51029;DHT22;37054;52.054;8.600;2023-05-19T01:42:17;8.50;51.10
51029;DHT22;37054;52.054;8.600;2023-05-19T01:44:43;8.40;51.10
51029;DHT22;37054;52.054;8.600;2023-05-19T01:47:09;8.40;51.10
51029;DHT22;37054;52.054;8.600;2023-05-19T01:49:35;8.40;51.30
51029;DHT22;37054;52.054;8.600;2023-05-19T01:52:00;8.40;51.50
51029;DHT22;37054;52.054;8.600;2023-05-19T01:54:26;8.40;51.60
51029;DHT22;37054;52.054;8.600;2023-05-19T02:02:36;8.20;51.90
51029;DHT22;37054;52.054;8.600;2023-05-19T02:05:08;8.20;52.00
51029;DHT22;37054;52.054;8.600;2023-05-19T02:07:43;8.10;52.10
51029;DHT22;37054;52.054;8.600;2023-05-19T02:10:21;8.10;52.00
51029;DHT22;37054;52.054;8.600;2023-05-19T02:12:47;8.10;51.90
51029;DHT22;37054;52.054;8.600;2023-05-19T02:15:20;8.10;51.80
51029;DHT22;37054;52.054;8.600;2023-05-19T02:17:47;8.00;51.90
51029;DHT22;37054;52.054;8.600;2023-05-19T02:20:16;8.00;52.10
51029;DHT22;37054;52.054;8.600;2023-05-19T02:22:42;8.00;52.30
51029;DHT22;37054;52.054;8.600;2023-05-19T02:25:08;8.00;52.30
51029;DHT22;37054;52.054;8.600;2023-05-19T02:27:34;7.90;52.10
51029;DHT22;37054;52.054;8.600;2023-05-19T02:30:00;7.90;52.10
51029;DHT22;37054;52.054;8.600;2023-05-19T02:32:26;7.90;52.00
51029;DHT22;37054;52.054;8.600;2023-05-19T02:34:51;7.80;52.20
51029;DHT22;37054;52.054;8.600;2023-05-19T02:37:17;7.80;52.30
51029;DHT22;37054;52.054;8.600;2023-05-19T02:39:43;7.80;52.20
51029;DHT22;37054;52.054;8.600;2023-05-19T02:42:08;7.80;52.20
51029;DHT22;37054;52.054;8.600;2023-05-19T02:44:34;7.80;52.20
51029;DHT22;37054;52.054;8.600;2023-05-19T02:47:00;7.80;52.10
51029;DHT22;37054;52.054;8.600;2023-05-19T02:49:26;7.70;52.30
51029;DHT22;37054;52.054;8.600;2023-05-19T02:51:51;7.70;52.40
51029;DHT22;37054;52.054;8.600;2023-05-19T02:54:17;7.70;52.50
51029;DHT22;37054;52.054;8.600;2023-05-19T02:56:42;7.70;52.70
51029;DHT22;37054;52.054;8.600;2023-05-19T02:59:08;7.70;52.80
51029;DHT22;37054;52.054;8.600;2023-05-19T03:01:33;7.70;52.70
51029;DHT22;37054;52.054;8.600;2023-05-19T03:03:59;7.70;52.60
51029;DHT22;37054;52.054;8.600;2023-05-19T03:06:24;7.70;52.60
51029;DHT22;37054;52.054;8.600;2023-05-19T03:08:49;7.60;52.80
51029;DHT22;37054;52.054;8.600;2023-05-19T03:11:15;7.60;52.90
51029;DHT22;37054;52.054;8.600;2023-05-19T03:13:41;7.60;53.10
51029;DHT22;37054;52.054;8.600;2023-05-19T03:16:06;7.60;53.20
51029;DHT22;37054;52.054;8.600;2023-05-19T03:18:32;7.70;53.30
51029;DHT22;37054;52.054;8.600;2023-05-19T03:20:58;7.70;53.30
51029;DHT22;37054;52.054;8.600;2023-05-19T03:23:23;7.60;53.30
51029;DHT22;37054;52.054;8.600;2023-05-19T03:25:50;7.60;53.10
51029;DHT22;37054;52.054;8.600;2023-05-19T03:28:18;7.60;53.10
51029;DHT22;37054;52.054;8.600;2023-05-19T03:30:43;7.60;53.10
51029;DHT22;37054;52.054;8.600;2023-05-19T03:33:09;7.60;53.20
51029;DHT22;37054;52.054;8.600;2023-05-19T03:35:35;7.60;53.40
51029;DHT22;37054;52.054;8.600;2023-05-19T03:38:00;7.60;53.50
51029;DHT22;37054;52.054;8.600;2023-05-19T03:40:26;7.70;53.70
51029;DHT22;37054;52.054;8.600;2023-05-19T03:42:51;7.70;53.60
51029;DHT22;37054;52.054;8.600;2023-05-19T03:45:18;7.70;53.40
51029;DHT22;37054;52.054;8.600;2023-05-19T03:47:43;7.70;53.40
51029;DHT22;37054;52.054;8.600;2023-05-19T03:50:10;7.70;53.40
51029;DHT22;37054;52.054;8.600;2023-05-19T03:52:36;7.70;53.40
51029;DHT22;37054;52.054;8.600;2023-05-19T03:55:03;7.70;53.60
51029;DHT22;37054;52.054;8.600;2023-05-19T03:57:28;7.70;53.60
51029;DHT22;37054;52.054;8.600;2023-05-19T03:59:54;7.70;53.60
51029;DHT22;37054;52.054;8.600;2023-05-19T04:02:19;7.80;53.60
51029;DHT22;37054;52.054;8.600;2023-05-19T04:04:44;7.90;53.80
51029;DHT22;37054;52.054;8.600;2023-05-19T04:07:10;8.00;54.00
51029;DHT22;37054;52.054;8.600;2023-05-19T04:09:35;8.30;54.40
51029;DHT22;37054;52.054;8.600;2023-05-19T04:12:01;8.60;54.80
51029;DHT22;37054;52.054;8.600;2023-05-19T04:14:27;8.90;55.10
51029;DHT22;37054;52.054;8.600;2023-05-19T04:16:53;9.30;55.40
51029;DHT22;37054;52.054;8.600;2023-05-19T04:19:18;9.70;55.40
51029;DHT22;37054;52.054;8.600;2023-05-19T04:21:44;10.00;55.50
51029;DHT22;37054;52.054;8.600;2023-05-19T04:24:09;10.50;55.70
51029;DHT22;37054;52.054;8.600;2023-05-19T04:26:34;10.90;55.70
51029;DHT22;37054;52.054;8.600;2023-05-19T04:29:02;11.30;55.60
51029;DHT22;37054;52.054;8.600;2023-05-19T04:31:28;11.80;55.50
51029;DHT22;37054;52.054;8.600;2023-05-19T04:33:54;12.20;55.30
51029;DHT22;37054;52.054;8.600;2023-05-19T04:36:19;12.60;55.20
51029;DHT22;37054;52.054;8.600;2023-05-19T04:38:46;13.00;55.00
51029;DHT22;37054;52.054;8.600;2023-05-19T04:41:11;13.40;54.80
51029;DHT22;37054;52.054;8.600;2023-05-19T04:43:37;13.80;54.70
51029;DHT22;37054;52.054;8.600;2023-05-19T04:46:06;14.20;53.90
51029;DHT22;37054;52.054;8.600;2023-05-19T04:48:32;14.40;53.40
51029;DHT22;37054;52.054;8.600;2023-05-19T04:50:57;14.70;53.70
51029;DHT22;37054;52.054;8.600;2023-05-19T04:53:26;15.10;53.80
51029;DHT22;37054;52.054;8.600;2023-05-19T04:55:52;15.50;53.50
51029;DHT22;37054;52.054;8.600;2023-05-19T04:58:18;15.90;53.20
51029;DHT22;37054;52.054;8.600;2023-05-19T05:00:44;16.30;51.90
51029;DHT22;37054;52.054;8.600;2023-05-19T05:03:09;16.60;51.80
51029;DHT22;37054;52.054;8.600;2023-05-19T05:05:36;17.00;51.40
51029;DHT22;37054;52.054;8.600;2023-05-19T05:08:01;17.30;50.50
51029;DHT22;37054;52.054;8.600;2023-05-19T05:10:27;17.70;50.40
51029;DHT22;37054;52.054;8.600;2023-05-19T05:12:52;18.10;49.60
51029;DHT22;37054;52.054;8.600;2023-05-19T05:15:18;18.50;48.70
51029;DHT22;37054;52.054;8.600;2023-05-19T05:17:44;19.00;47.60
51029;DHT22;37054;52.054;8.600;2023-05-19T05:20:09;19.40;46.80
51029;DHT22;37054;52.054;8.600;2023-05-19T05:22:36;19.80;46.20
51029;DHT22;37054;52.054;8.600;2023-05-19T05:25:03;20.30;45.80
51029;DHT22;37054;52.054;8.600;2023-05-19T05:27:28;20.80;45.10
51029;DHT22;37054;52.054;8.600;2023-05-19T05:29:54;21.30;44.10
51029;DHT22;37054;52.054;8.600;2023-05-19T05:32:22;21.70;43.60
51029;DHT22;37054;52.054;8.600;2023-05-19T05:34:47;22.10;42.70
51029;DHT22;37054;52.054;8.600;2023-05-19T05:37:13;22.60;41.00
51029;DHT22;37054;52.054;8.600;2023-05-19T05:39:39;23.00;40.10
51029;DHT22;37054;52.054;8.600;2023-05-19T05:42:04;23.30;39.40
51029;DHT22;37054;52.054;8.600;2023-05-19T05:44:30;23.70;38.80
51029;DHT22;37054;52.054;8.600;2023-05-19T05:46:55;24.00;38.20
51029;DHT22;37054;52.054;8.600;2023-05-19T05:49:21;24.40;37.30
51029;DHT22;37054;52.054;8.600;2023-05-19T05:51:46;24.70;36.40
51029;DHT22;37054;52.054;8.600;2023-05-19T05:54:12;25.00;35.90
51029;DHT22;37054;52.054;8.600;2023-05-19T05:56:38;25.30;35.30
51029;DHT22;37054;52.054;8.600;2023-05-19T05:59:03;25.60;34.70
51029;DHT22;37054;52.054;8.600;2023-05-19T06:01:29;25.80;33.60
51029;DHT22;37054;52.054;8.600;2023-05-19T06:03:55;26.10;33.20
51029;DHT22;37054;52.054;8.600;2023-05-19T06:06:20;26.40;33.20
51029;DHT22;37054;52.054;8.600;2023-05-19T06:08:46;26.80;32.70
51029;DHT22;37054;52.054;8.600;2023-05-19T06:11:11;27.10;32.10
51029;DHT22;37054;52.054;8.600;2023-05-19T06:13:37;27.40;31.70
51029;DHT22;37054;52.054;8.600;2023-05-19T06:16:03;27.80;31.40
51029;DHT22;37054;52.054;8.600;2023-05-19T06:18:28;28.10;30.80
51029;DHT22;37054;52.054;8.600;2023-05-19T06:20:54;28.40;30.00
51029;DHT22;37054;52.054;8.600;2023-05-19T06:23:19;28.70;29.60
51029;DHT22;37054;52.054;8.600;2023-05-19T06:25:45;29.00;29.10
51029;DHT22;37054;52.054;8.600;2023-05-19T06:28:10;29.30;28.70
51029;DHT22;37054;52.054;8.600;2023-05-19T06:30:35;29.50;28.30
51029;DHT22;37054;52.054;8.600;2023-05-19T06:33:01;29.80;27.50
51029;DHT22;37054;52.054;8.600;2023-05-19T06:35:27;30.00;26.80
51029;DHT22;37054;52.054;8.600;2023-05-19T06:37:53;30.20;26.40
51029;DHT22;37054;52.054;8.600;2023-05-19T06:40:20;30.50;26.70
51029;DHT22;37054;52.054;8.600;2023-05-19T06:42:46;30.70;26.00
51029;DHT22;37054;52.054;8.600;2023-05-19T06:45:11;31.00;25.70
51029;DHT22;37054;52.054;8.600;2023-05-19T06:47:37;31.30;24.80
51029;DHT22;37054;52.054;8.600;2023-05-19T06:50:02;31.50;24.40
51029;DHT22;37054;52.054;8.600;2023-05-19T06:52:28;31.60;24.10
51029;DHT22;37054;52.054;8.600;2023-05-19T06:54:53;31.80;23.80
51029;DHT22;37054;52.054;8.600;2023-05-19T06:57:19;32.00;23.50
51029;DHT22;37054;52.054;8.600;2023-05-19T06:59:45;32.20;22.80
51029;DHT22;37054;52.054;8.600;2023-05-19T07:02:11;32.20;22.90
51029;DHT22;37054;52.054;8.600;2023-05-19T07:04:36;32.20;22.10
51029;DHT22;37054;52.054;8.600;2023-05-19T07:07:02;32.20;22.10
51029;DHT22;37054;52.054;8.600;2023-05-19T07:09:27;32.30;22.40
51029;DHT22;37054;52.054;8.600;2023-05-19T07:11:53;32.50;22.50
51029;DHT22;37054;52.054;8.600;2023-05-19T07:14:20;32.80;22.70
51029;DHT22;37054;52.054;8.600;2023-05-19T07:16:45;33.20;22.50
51029;DHT22;37054;52.054;8.600;2023-05-19T07:19:11;33.60;22.20
51029;DHT22;37054;52.054;8.600;2023-05-19T07:21:36;33.90;22.00
51029;DHT22;37054;52.054;8.600;2023-05-19T07:24:02;34.20;21.20
51029;DHT22;37054;52.054;8.600;2023-05-19T07:26:27;34.10;20.40
51029;DHT22;37054;52.054;8.600;2023-05-19T07:28:53;34.00;20.10
51029;DHT22;37054;52.054;8.600;2023-05-19T07:31:18;33.80;20.40
51029;DHT22;37054;52.054;8.600;2023-05-19T07:33:44;34.00;20.70
51029;DHT22;37054;52.054;8.600;2023-05-19T07:36:09;34.20;20.70
51029;DHT22;37054;52.054;8.600;2023-05-19T07:38:35;34.40;20.50
51029;DHT22;37054;52.054;8.600;2023-05-19T07:41:01;34.50;19.90
51029;DHT22;37054;52.054;8.600;2023-05-19T07:43:26;34.40;20.10
51029;DHT22;37054;52.054;8.600;2023-05-19T07:45:52;34.50;20.40
51029;DHT22;37054;52.054;8.600;2023-05-19T07:48:18;34.80;20.60
51029;DHT22;37054;52.054;8.600;2023-05-19T07:50:46;35.10;20.30
51029;DHT22;37054;52.054;8.600;2023-05-19T07:53:12;35.20;20.20
51029;DHT22;37054;52.054;8.600;2023-05-19T07:55:37;35.40;19.50
51029;DHT22;37054;52.054;8.600;2023-05-19T07:58:03;35.30;19.00
51029;DHT22;37054;52.054;8.600;2023-05-19T08:00:28;35.00;19.00
51029;DHT22;37054;52.054;8.600;2023-05-19T08:02:53;35.00;19.50
51029;DHT22;37054;52.054;8.600;2023-05-19T08:05:21;35.10;19.20
51029;DHT22;37054;52.054;8.600;2023-05-19T08:07:46;35.00;19.00
51029;DHT22;37054;52.054;8.600;2023-05-19T08:10:12;34.90;19.20
51029;DHT22;37054;52.054;8.600;2023-05-19T08:12:37;35.00;19.20
51029;DHT22;37054;52.054;8.600;2023-05-19T08:15:03;35.20;19.30
51029;DHT22;37054;52.054;8.600;2023-05-19T08:17:28;35.60;19.40
51029;DHT22;37054;52.054;8.600;2023-05-19T08:19:54;36.00;19.20
51029;DHT22;37054;52.054;8.600;2023-05-19T08:22:19;36.00;18.20
51029;DHT22;37054;52.054;8.600;2023-05-19T08:24:45;35.80;18.00
51029;DHT22;37054;52.054;8.600;2023-05-19T08:27:10;35.70;18.50
51029;DHT22;37054;52.054;8.600;2023-05-19T08:29:36;36.00;18.90
51029;DHT22;37054;52.054;8.600;2023-05-19T08:32:02;36.30;18.70
51029;DHT22;37054;52.054;8.600;2023-05-19T08:34:28;36.60;18.40
51029;DHT22;37054;52.054;8.600;2023-05-19T08:36:53;36.80;18.50
51029;DHT22;37054;52.054;8.600;2023-05-19T08:39:22;37.10;17.90
51029;DHT22;37054;52.054;8.600;2023-05-19T08:41:51;37.00;17.80
51029;DHT22;37054;52.054;8.600;2023-05-19T08:44:17;37.20;17.40
51029;DHT22;37054;52.054;8.600;2023-05-19T08:46:42;37.00;17.40
51029;DHT22;37054;52.054;8.600;2023-05-19T08:49:10;36.80;17.30
51029;DHT22;37054;52.054;8.600;2023-05-19T08:51:49;37.00;17.80
51029;DHT22;37054;52.054;8.600;2023-05-19T08:54:18;37.30;17.60
51029;DHT22;37054;52.054;8.600;2023-05-19T08:56:46;37.00;16.40
51029;DHT22;37054;52.054;8.600;2023-05-19T08:59:12;36.90;16.60
51029;DHT22;37054;52.054;8.600;2023-05-19T09:01:41;37.00;15.90
51029;DHT22;37054;52.054;8.600;2023-05-19T09:04:06;37.00;16.20
51029;DHT22;37054;52.054;8.600;2023-05-19T09:06:32;37.10;15.90
51029;DHT22;37054;52.054;8.600;2023-05-19T09:08:57;36.80;16.00
51029;DHT22;37054;52.054;8.600;2023-05-19T09:11:26;36.90;16.60
51029;DHT22;37054;52.054;8.600;2023-05-19T09:13:51;36.90;15.70
51029;DHT22;37054;52.054;8.600;2023-05-19T09:16:18;36.10;15.80
51029;DHT22;37054;52.054;8.600;2023-05-19T09:18:56;35.50;16.40
51029;DHT22;37054;52.054;8.600;2023-05-19T09:21:28;34.80;16.60
51029;DHT22;37054;52.054;8.600;2023-05-19T09:23:57;33.70;17.10
51029;DHT22;37054;52.054;8.600;2023-05-19T09:26:23;32.70;18.00
51029;DHT22;37054;52.054;8.600;2023-05-19T09:28:49;31.90;18.70
51029;DHT22;37054;52.054;8.600;2023-05-19T09:31:14;31.30;19.20
51029;DHT22;37054;52.054;8.600;2023-05-19T09:33:41;30.80;19.90
51029;DHT22;37054;52.054;8.600;2023-05-19T09:36:07;30.80;20.30
51029;DHT22;37054;52.054;8.600;2023-05-19T09:38:33;31.00;20.70
51029;DHT22;37054;52.054;8.600;2023-05-19T09:40:59;31.50;20.50
51029;DHT22;37054;52.054;8.600;2023-05-19T09:43:28;31.80;20.30
51029;DHT22;37054;52.054;8.600;2023-05-19T09:46:06;31.80;19.60
51029;DHT22;37054;52.054;8.600;2023-05-19T09:48:32;31.50;19.10
51029;DHT22;37054;52.054;8.600;2023-05-19T09:51:02;31.10;19.30
51029;DHT22;37054;52.054;8.600;2023-05-19T09:53:28;30.80;19.70
51029;DHT22;37054;52.054;8.600;2023-05-19T09:55:54;30.40;19.50
51029;DHT22;37054;52.054;8.600;2023-05-19T09:58:23;30.20;19.30
51029;DHT22;37054;52.054;8.600;2023-05-19T10:00:49;30.00;19.20
51029;DHT22;37054;52.054;8.600;2023-05-19T10:03:14;29.90;19.40
51029;DHT22;37054;52.054;8.600;2023-05-19T10:05:42;30.10;20.10
51029;DHT22;37054;52.054;8.600;2023-05-19T10:08:07;29.80;20.60
51029;DHT22;37054;52.054;8.600;2023-05-19T10:10:35;29.80;21.40
51029;DHT22;37054;52.054;8.600;2023-05-19T10:13:01;30.20;21.50
51029;DHT22;37054;52.054;8.600;2023-05-19T10:15:28;30.30;21.30
51029;DHT22;37054;52.054;8.600;2023-05-19T10:17:54;30.10;21.20
51029;DHT22;37054;52.054;8.600;2023-05-19T10:20:20;29.70;21.30
51029;DHT22;37054;52.054;8.600;2023-05-19T10:22:46;29.30;21.40
51029;DHT22;37054;52.054;8.600;2023-05-19T10:25:13;28.90;21.70
51029;DHT22;37054;52.054;8.600;2023-05-19T10:27:41;28.60;22.00
51029;DHT22;37054;52.054;8.600;2023-05-19T10:30:19;28.50;22.30
51029;DHT22;37054;52.054;8.600;2023-05-19T10:32:46;28.50;22.50
51029;DHT22;37054;52.054;8.600;2023-05-19T10:40:33;28.90;22.10
51029;DHT22;37054;52.054;8.600;2023-05-19T10:43:21;29.00;21.60
51029;DHT22;37054;52.054;8.600;2023-05-19T10:45:52;29.00;21.80
51029;DHT22;37054;52.054;8.600;2023-05-19T10:48:18;29.00;22.00
51029;DHT22;37054;52.054;8.600;2023-05-19T10:50:44;29.30;22.00
51029;DHT22;37054;52.054;8.600;2023-05-19T10:53:17;29.50;21.50
51029;DHT22;37054;52.054;8.600;2023-05-19T10:55:44;29.40;21.40
51029;DHT22;37054;52.054;8.600;2023-05-19T10:58:10;29.30;21.50
51029;DHT22;37054;52.054;8.600;2023-05-19T11:00:36;29.50;21.70
51029;DHT22;37054;52.054;8.600;2023-05-19T11:03:13;29.90;21.40
51029;DHT22;37054;52.054;8.600;2023-05-19T11:05:38;30.30;20.70
51029;DHT22;37054;52.054;8.600;2023-05-19T11:08:04;30.70;19.50
51029;DHT22;37054;52.054;8.600;2023-05-19T11:10:32;30.90;19.00
51029;DHT22;37054;52.054;8.600;2023-05-19T11:12:58;31.00;18.40
51029;DHT22;37054;52.054;8.600;2023-05-19T11:15:26;31.00;18.30
51029;DHT22;37054;52.054;8.600;2023-05-19T11:17:52;31.20;17.90
51029;DHT22;37054;52.054;8.600;2023-05-19T11:22:59;31.90;17.40
51029;DHT22;37054;52.054;8.600;2023-05-19T11:25:39;32.10;17.00
51029;DHT22;37054;52.054;8.600;2023-05-19T11:28:05;32.00;17.40
51029;DHT22;37054;52.054;8.600;2023-05-19T11:30:31;32.00;17.30
51029;DHT22;37054;52.054;8.600;2023-05-19T11:32:56;32.10;17.50
51029;DHT22;37054;52.054;8.600;2023-05-19T11:35:22;32.30;17.80
51029;DHT22;37054;52.054;8.600;2023-05-19T11:37:52;32.20;16.70
51029;DHT22;37054;52.054;8.600;2023-05-19T11:40:18;32.10;17.20
51029;DHT22;37054;52.054;8.600;2023-05-19T11:42:45;32.10;17.40
51029;DHT22;37054;52.054;8.600;2023-05-19T11:45:11;32.20;17.20
51029;DHT22;37054;52.054;8.600;2023-05-19T11:47:36;32.00;16.60
51029;DHT22;37054;52.054;8.600;2023-05-19T11:50:02;31.90;16.90
51029;DHT22;37054;52.054;8.600;2023-05-19T11:52:28;31.60;17.10
51029;DHT22;37054;52.054;8.600;2023-05-19T11:54:53;31.00;17.40
51029;DHT22;37054;52.054;8.600;2023-05-19T11:57:19;30.50;18.00
51029;DHT22;37054;52.054;8.600;2023-05-19T11:59:45;30.10;18.40
51029;DHT22;37054;52.054;8.600;2023-05-19T12:02:20;29.60;19.00
51029;DHT22;37054;52.054;8.600;2023-05-19T12:04:46;29.30;19.20
51029;DHT22;37054;52.054;8.600;2023-05-19T12:07:12;29.10;19.40
51029;DHT22;37054;52.054;8.600;2023-05-19T12:09:42;29.10;19.60
51029;DHT22;37054;52.054;8.600;2023-05-19T12:12:07;29.30;19.80
51029;DHT22;37054;52.054;8.600;2023-05-19T12:14:33;29.10;19.50
51029;DHT22;37054;52.054;8.600;2023-05-19T12:17:09;28.80;19.70
51029;DHT22;37054;52.054;8.600;2023-05-19T12:19:35;28.70;19.90
51029;DHT22;37054;52.054;8.600;2023-05-19T12:22:01;28.60;19.70
51029;DHT22;37054;52.054;8.600;2023-05-19T12:24:27;28.70;19.80
51029;DHT22;37054;52.054;8.600;2023-05-19T12:27:03;29.00;19.80
51029;DHT22;37054;52.054;8.600;2023-05-19T12:29:30;29.40;19.80
51029;DHT22;37054;52.054;8.600;2023-05-19T12:31:55;29.50;19.30
51029;DHT22;37054;52.054;8.600;2023-05-19T12:34:21;29.10;19.50
51029;DHT22;37054;52.054;8.600;2023-05-19T12:36:47;28.50;20.00
51029;DHT22;37054;52.054;8.600;2023-05-19T12:39:12;28.30;20.40
51029;DHT22;37054;52.054;8.600;2023-05-19T12:41:38;28.30;20.50
51029;DHT22;37054;52.054;8.600;2023-05-19T12:44:12;28.40;20.50
51029;DHT22;37054;52.054;8.600;2023-05-19T12:46:39;28.50;20.20
51029;DHT22;37054;52.054;8.600;2023-05-19T12:49:04;28.60;19.70
51029;DHT22;37054;52.054;8.600;2023-05-19T12:51:29;28.70;19.80
51029;DHT22;37054;52.054;8.600;2023-05-19T12:53:55;28.50;20.20
51029;DHT22;37054;52.054;8.600;2023-05-19T12:56:20;28.20;20.50
51029;DHT22;37054;52.054;8.600;2023-05-19T12:58:54;27.80;20.90
51029;DHT22;37054;52.054;8.600;2023-05-19T13:01:19;27.70;21.20
51029;DHT22;37054;52.054;8.600;2023-05-19T13:03:46;27.70;21.60
51029;DHT22;37054;52.054;8.600;2023-05-19T13:06:11;27.70;21.40
51029;DHT22;37054;52.054;8.600;2023-05-19T13:08:37;27.80;21.50
51029;DHT22;37054;52.054;8.600;2023-05-19T13:11:04;27.70;21.40
51029;DHT22;37054;52.054;8.600;2023-05-19T13:13:29;27.30;21.50
51029;DHT22;37054;52.054;8.600;2023-05-19T13:15:55;27.10;22.00
51029;DHT22;37054;52.054;8.600;2023-05-19T13:18:20;27.00;22.20
51029;DHT22;37054;52.054;8.600;2023-05-19T13:20:46;26.80;22.40
51029;DHT22;37054;52.054;8.600;2023-05-19T13:23:14;26.60;22.70
51029;DHT22;37054;52.054;8.600;2023-05-19T13:25:40;26.30;22.70
51029;DHT22;37054;52.054;8.600;2023-05-19T13:28:06;26.30;23.00
51029;DHT22;37054;52.054;8.600;2023-05-19T13:30:32;26.50;23.20
51029;DHT22;37054;52.054;8.600;2023-05-19T13:32:58;26.70;22.90
51029;DHT22;37054;52.054;8.600;2023-05-19T13:35:23;26.90;22.60
51029;DHT22;37054;52.054;8.600;2023-05-19T13:37:49;27.10;22.60
51029;DHT22;37054;52.054;8.600;2023-05-19T13:40:15;27.50;22.50
51029;DHT22;37054;52.054;8.600;2023-05-19T13:42:41;27.50;22.00
51029;DHT22;37054;52.054;8.600;2023-05-19T13:45:07;27.20;22.00
51029;DHT22;37054;52.054;8.600;2023-05-19T13:47:32;27.10;22.40
51029;DHT22;37054;52.054;8.600;2023-05-19T13:49:58;27.00;22.30
51029;DHT22;37054;52.054;8.600;2023-05-19T13:52:23;27.10;22.70
51029;DHT22;37054;52.054;8.600;2023-05-19T13:54:49;27.10;22.50
51029;DHT22;37054;52.054;8.600;2023-05-19T13:57:15;26.90;22.30
51029;DHT22;37054;52.054;8.600;2023-05-19T13:59:40;26.60;22.60
51029;DHT22;37054;52.054;8.600;2023-05-19T14:02:07;26.30;22.80
51029;DHT22;37054;52.054;8.600;2023-05-19T14:04:34;26.10;23.20
51029;DHT22;37054;52.054;8.600;2023-05-19T14:07:00;26.10;23.20
51029;DHT22;37054;52.054;8.600;2023-05-19T14:09:26;25.90;23.40
51029;DHT22;37054;52.054;8.600;2023-05-19T14:11:51;25.80;22.80
51029;DHT22;37054;52.054;8.600;2023-05-19T14:14:17;25.80;23.00
51029;DHT22;37054;52.054;8.600;2023-05-19T14:16:42;26.10;23.00
51029;DHT22;37054;52.054;8.600;2023-05-19T14:19:07;26.20;22.80
51029;DHT22;37054;52.054;8.600;2023-05-19T14:21:33;25.90;22.60
51029;DHT22;37054;52.054;8.600;2023-05-19T14:23:58;25.60;22.60
51029;DHT22;37054;52.054;8.600;2023-05-19T14:26:25;25.30;23.00
51029;DHT22;37054;52.054;8.600;2023-05-19T14:28:51;25.30;23.40
51029;DHT22;37054;52.054;8.600;2023-05-19T14:31:17;25.60;22.80
51029;DHT22;37054;52.054;8.600;2023-05-19T14:33:42;25.80;23.10
51029;DHT22;37054;52.054;8.600;2023-05-19T14:36:08;26.00;23.40
51029;DHT22;37054;52.054;8.600;2023-05-19T14:38:33;26.10;23.40
51029;DHT22;37054;52.054;8.600;2023-05-19T14:40:59;26.00;23.40
51029;DHT22;37054;52.054;8.600;2023-05-19T14:43:25;25.90;23.40
51029;DHT22;37054;52.054;8.600;2023-05-19T14:45:50;25.80;23.10
51029;DHT22;37054;52.054;8.600;2023-05-19T14:48:16;25.60;23.20
51029;DHT22;37054;52.054;8.600;2023-05-19T14:50:41;25.50;22.80
51029;DHT22;37054;52.054;8.600;2023-05-19T14:53:07;25.40;22.40
51029;DHT22;37054;52.054;8.600;2023-05-19T14:55:32;25.30;22.60
51029;DHT22;37054;52.054;8.600;2023-05-19T14:57:58;25.00;23.00
51029;DHT22;37054;52.054;8.600;2023-05-19T15:00:23;24.80;23.30
51029;DHT22;37054;52.054;8.600;2023-05-19T15:02:52;24.70;23.50
51029;DHT22;37054;52.054;8.600;2023-05-19T15:05:17;24.50;23.90
51029;DHT22;37054;52.054;8.600;2023-05-19T15:07:43;24.50;24.30
51029;DHT22;37054;52.054;8.600;2023-05-19T15:10:08;24.50;24.50
51029;DHT22;37054;52.054;8.600;2023-05-19T15:12:34;24.60;24.80
51029;DHT22;37054;52.054;8.600;2023-05-19T15:14:59;24.60;24.80
51029;DHT22;37054;52.054;8.600;2023-05-19T15:17:25;24.70;24.70
51029;DHT22;37054;52.054;8.600;2023-05-19T15:19:50;24.80;24.50
51029;DHT22;37054;52.054;8.600;2023-05-19T15:22:15;24.70;24.20
51029;DHT22;37054;52.054;8.600;2023-05-19T15:24:41;24.60;23.90
51029;DHT22;37054;52.054;8.600;2023-05-19T15:27:07;24.50;24.10
51029;DHT22;37054;52.054;8.600;2023-05-19T15:29:32;24.50;24.20
51029;DHT22;37054;52.054;8.600;2023-05-19T15:31:58;24.50;24.30
51029;DHT22;37054;52.054;8.600;2023-05-19T15:34:23;24.50;24.20
51029;DHT22;37054;52.054;8.600;2023-05-19T15:36:49;24.40;24.30
51029;DHT22;37054;52.054;8.600;2023-05-19T15:39:14;24.30;24.30
51029;DHT22;37054;52.054;8.600;2023-05-19T15:41:39;24.20;24.50
51029;DHT22;37054;52.054;8.600;2023-05-19T15:44:05;24.20;24.80
51029;DHT22;37054;52.054;8.600;2023-05-19T15:46:31;24.20;24.90
51029;DHT22;37054;52.054;8.600;2023-05-19T15:48:57;24.20;25.10